Home > Products > Valid Products > TAF

000
FTUS45 KPSR 250424 AAA
TAFBLH
TAF AMD
KBLH 250424Z 2504/2524 22016G26KT P6SM SKC
     FM250800 27008KT P6SM SKC=



000
FTUS45 KPSR 242320
TAFBLH
TAF
KBLH 242320Z 2500/2524 22016G26KT P6SM SKC
     FM250400 27008KT P6SM SKC=



000
FTUS45 KPSR 242320
TAFIWA
TAF
KIWA 242320Z 2500/2524 25011G18KT P6SM SKC
     FM250400 29006KT P6SM SKC
     FM250800 14005KT P6SM SKC
     FM251900 24012G20KT P6SM SKC=



000
FTUS45 KPSR 242320
TAFIPL
TAF
KIPL 242320Z 2500/2524 28016G28KT P6SM SKC
     FM251800 28010G16KT P6SM SKC
     FM252100 25018G30KT P6SM SKC=



000
FTUS45 KPSR 242320
TAFPHX
TAF
KPHX 242320Z 2500/2524 24014G21KT P6SM SKC
     FM250300 28008KT P6SM SKC
     FM250600 VRB05KT P6SM SKC
     FM251100 13006KT P6SM SKC
     FM251800 18011G18KT P6SM SKC=



000
FTUS45 KPSR 241720
TAFBLH
TAF
KBLH 241720Z 2418/2518 22016G26KT P6SM SKC
     FM250400 27008KT P6SM SKC=



000
FTUS45 KPSR 241720
TAFIPL
TAF
KIPL 241720Z 2418/2518 28016G28KT P6SM SKC=



000
FTUS45 KPSR 241720
TAFPHX
TAF
KPHX 241720Z 2418/2518 19007KT P6SM SKC
     FM242100 22012G21KT P6SM SKC
     FM250400 26008KT P6SM SKC
     FM250900 12005KT P6SM SKC=



000
FTUS45 KPSR 241720
TAFIWA
TAF
KIWA 241720Z 2418/2518 25014G22KT P6SM SKC
     FM250400 29006KT P6SM SKC
     FM250800 14005KT P6SM SKC=



000
FTUS45 KPSR 241121
TAFPHX
TAF
KPHX 241121Z 2412/2512 12006KT P6SM SKC
     FM242000 22014G22KT P6SM SKC
     FM250400 26008KT P6SM SKC
     FM250900 12005KT P6SM SKC=



000
FTUS45 KPSR 241121
TAFIWA
TAF
KIWA 241121Z 2412/2512 15008KT P6SM SKC
     FM241900 25010G17KT P6SM SKC
     FM250300 29006KT P6SM SKC
     FM250800 14005KT P6SM SKC
      AMD LTD TO CLD VIS AND WIND TIL 241300=



000
FTUS45 KPSR 241121
TAFIPL
TAF
KIPL 241121Z 2412/2512 28016G26KT P6SM SKC=



000
FTUS45 KPSR 241121
TAFBLH
TAF
KBLH 241121Z 2412/2512 23009KT P6SM SKC
     FM242000 22016G26KT P6SM SKC
     FM250400 23012KT P6SM SKC=



000
FTUS45 KPSR 240902 AAA
TAFPHX
TAF AMD
KPHX 240902Z 2409/2506 12006KT P6SM SKC
     FM242000 22014G22KT P6SM SKC
     FM250400 26008KT P6SM SKC=



000
FTUS45 KPSR 240702 AAA
TAFBLH
TAF AMD
KBLH 240702Z 2407/2506 22012G20KT P6SM SKC
     FM241100 21008KT P6SM SKC
     FM241800 22016G24KT P6SM SKC
     FM250400 23012KT P6SM SKC=



000
FTUS45 KPSR 240520
TAFIWA
TAF
KIWA 240520Z 2406/2506 26004KT P6SM SKC
     FM240700 12008KT P6SM SKC
     FM241700 25010G17KT P6SM SKC
     FM250300 29006KT P6SM SKC
      AMD LTD TO CLD VIS AND WIND TIL 241300=



000
FTUS45 KPSR 232343 AAA
TAFIWA
TAF AMD
KIWA 232343Z 2400/2424 26008KT P6SM SKC
     FM240900 13008KT P6SM SKC
     FM241600 24010KT P6SM SKC
      AMD LTD TO CLD VIS AND WIND TIL 241300=



000
FTUS45 KPSR 232334
TAFPHX
TAF
KPHX 232334Z 2400/2424 26011KT P6SM SKC
     FM241000 12008KT P6SM SKC
     FM241900 22010KT P6SM SKC=



000
FTUS45 KPSR 232334
TAFIPL
TAF
KIPL 232334Z 2400/2424 28010G15KT P6SM SKC
     FM240100 28014G25KT P6SM SKC
     FM240400 28010KT P6SM SKC=



000
FTUS45 KPSR 232334
TAFIWA
TAF
KIWA 232334Z 2400/2424 26008KT P6SM SKC
     FM240900 13008KT P6SM SKC
     FM241600 24010KT P6SM SKC=



000
FTUS45 KPSR 232334
TAFBLH
TAF
KBLH 232334Z 2400/2424 19014G22KT P6SM SKC
     FM240600 22010KT P6SM SKC
     FM241800 21012G18KT P6SM SKC=



000
FTUS45 KPSR 231727
TAFPHX
TAF
KPHX 231727Z 2318/2418 VRB05KT P6SM SKC
     FM232030 26011KT P6SM SKC
     FM241100 12008KT P6SM SKC=



000
FTUS45 KPSR 231727
TAFBLH
TAF
KBLH 231727Z 2318/2418 18010KT P6SM SKC
     FM232200 21014G22KT P6SM SKC
     FM240700 21012KT P6SM SKC=



000
FTUS45 KPSR 231727
TAFIPL
TAF
KIPL 231727Z 2318/2418 29010KT P6SM SKC
     FM240000 27016G25KT P6SM SKC=



000
FTUS45 KPSR 231727
TAFIWA
TAF
KIWA 231727Z 2318/2418 VRB05KT P6SM SKC
     FM231900 25009KT P6SM SKC
     FM240900 13007KT P6SM SKC=



000
FTUS45 KPSR 231458 AAA
TAFPHX
TAF AMD
KPHX 231458Z 2315/2412 13006KT P6SM SKC
     FM232000 26009KT P6SM SKC
     FM240900 10006KT P6SM SKC=



000
FTUS45 KPSR 231121
TAFBLH
TAF
KBLH 231121Z 2312/2412 23006KT P6SM SKC
     FM231800 18010KT P6SM SKC
     FM232200 21012G22KT P6SM SKC
     FM240400 21012KT P6SM SKC=



000
FTUS45 KPSR 231121
TAFIPL
TAF
KIPL 231121Z 2312/2412 27008KT P6SM SKC
     FM240100 27014G24KT P6SM SKC
     FM240500 27014KT P6SM SKC=



000
FTUS45 KPSR 231121
TAFIWA
TAF
KIWA 231121Z 2312/2412 12006KT P6SM SKC
     FM231900 25009KT P6SM SKC
     FM240600 VRB04KT P6SM SKC
     FM240900 12007KT P6SM SKC
      AMD LTD TO CLD VIS AND WIND TIL 231300=



000
FTUS45 KPSR 231121
TAFPHX
TAF
KPHX 231121Z 2312/2412 VRB05KT P6SM SKC
     FM231300 12006KT P6SM SKC
     FM232000 26009KT P6SM SKC
     FM240900 10006KT P6SM SKC=



000
FTUS45 KPSR 230559 AAA
TAFIPL
TAF AMD
KIPL 230559Z 2306/2406 27014KT P6SM SKC
     FM231300 27008KT P6SM SKC
     FM240100 27014KT P6SM SKC=



000
FTUS45 KPSR 230520
TAFIPL
TAF
KIPL 230520Z 2306/2406 27009KT P6SM SKC
     FM240100 27014KT P6SM SKC=



000
FTUS45 KPSR 230520
TAFPHX
TAF
KPHX 230520Z 2306/2406 26005KT P6SM SKC
     FM231000 12006KT P6SM SKC
     FM231900 26011KT P6SM SKC
     FM240400 25006KT P6SM SKC=



000
FTUS45 KPSR 230520
TAFIWA
TAF
KIWA 230520Z 2306/2406 13006KT P6SM SKC
     FM231800 25009KT P6SM SKC
     FM240400 VRB04KT P6SM SKC
      AMD LTD TO CLD VIS AND WIND TIL 231300=



000
FTUS45 KPSR 230520
TAFBLH
TAF
KBLH 230520Z 2306/2406 22007KT P6SM SKC
     FM231000 VRB04KT P6SM SKC
     FM232000 20013KT P6SM SKC=



000
FTUS45 KPSR 230244 AAB
TAFPHX
TAF AMD
KPHX 230244Z 2303/2324 28013KT P6SM SKC
     FM230430 25006KT P6SM SKC
     FM231000 12007KT P6SM SKC
     FM231900 25007KT P6SM SKC=



000
FTUS45 KPSR 230052 AAA
TAFPHX
TAF AMD
KPHX 230052Z 2301/2324 28013KT P6SM SKC
     FM230400 25006KT P6SM SKC
     FM231000 12007KT P6SM SKC
     FM231900 25007KT P6SM SKC=



000
FTUS45 KPSR 221507 AAB
TAFPHX
TAF AMD
KPHX 221507Z 2215/2312 18008KT P6SM SKC
     FM221800 22010KT P6SM SKC
      TEMPO 2221/2301 24012G16KT
     FM230900 14005KT P6SM SKC=



000
FTUS45 KPSR 220828 AAA
TAFPHX
TAF AMD
KPHX 220828Z 2208/2306 16008KT P6SM SKC
     FM221700 24010KT P6SM SKC=



    US Dept of Commerce
    National Oceanic and Atmospheric Administration
    National Weather Service
    1325 East West Highway
    Silver Spring, MD 20910
    Page Author: NWS Internet Services Team
Disclaimer
Information Quality
Credits
Glossary
Privacy Policy
Freedom of Information Act (FOIA)
About Us
Career Opportunities